sensor_id;sensor_type;location;lat;lon;timestamp;P1;durP1;ratioP1;P2;durP2;ratioP2
53877;SDS011;39790;53.144;6.424;2022-08-19T00:01:26;7.28;;;4.85;;
53877;SDS011;39790;53.144;6.424;2022-08-19T00:03:54;10.15;;;5.40;;
53877;SDS011;39790;53.144;6.424;2022-08-19T00:06:21;7.40;;;5.00;;
53877;SDS011;39790;53.144;6.424;2022-08-19T00:08:46;8.48;;;4.57;;
53877;SDS011;39790;53.144;6.424;2022-08-19T00:11:13;8.23;;;4.72;;
53877;SDS011;39790;53.144;6.424;2022-08-19T00:13:39;8.80;;;4.88;;
53877;SDS011;39790;53.144;6.424;2022-08-19T00:16:07;5.95;;;4.50;;
53877;SDS011;39790;53.144;6.424;2022-08-19T00:18:33;5.30;;;3.88;;
53877;SDS011;39790;53.144;6.424;2022-08-19T00:20:59;5.95;;;4.00;;
53877;SDS011;39790;53.144;6.424;2022-08-19T00:23:25;9.40;;;4.80;;
53877;SDS011;39790;53.144;6.424;2022-08-19T00:25:52;6.60;;;3.65;;
53877;SDS011;39790;53.144;6.424;2022-08-19T00:28:18;6.22;;;4.07;;
53877;SDS011;39790;53.144;6.424;2022-08-19T00:30:45;8.85;;;5.07;;
53877;SDS011;39790;53.144;6.424;2022-08-19T00:33:11;7.57;;;4.30;;
53877;SDS011;39790;53.144;6.424;2022-08-19T00:35:38;5.32;;;3.92;;
53877;SDS011;39790;53.144;6.424;2022-08-19T00:38:04;5.70;;;3.92;;
53877;SDS011;39790;53.144;6.424;2022-08-19T00:40:31;7.18;;;5.03;;
53877;SDS011;39790;53.144;6.424;2022-08-19T00:42:57;6.75;;;4.72;;
53877;SDS011;39790;53.144;6.424;2022-08-19T00:45:25;5.85;;;4.15;;
53877;SDS011;39790;53.144;6.424;2022-08-19T00:47:57;5.22;;;4.13;;
53877;SDS011;39790;53.144;6.424;2022-08-19T00:50:23;7.93;;;4.47;;
53877;SDS011;39790;53.144;6.424;2022-08-19T00:52:49;5.68;;;3.72;;
53877;SDS011;39790;53.144;6.424;2022-08-19T00:55:19;6.53;;;5.30;;
53877;SDS011;39790;53.144;6.424;2022-08-19T00:57:58;7.68;;;5.05;;
53877;SDS011;39790;53.144;6.424;2022-08-19T01:00:30;4.97;;;3.65;;
53877;SDS011;39790;53.144;6.424;2022-08-19T01:02:58;5.10;;;3.95;;
53877;SDS011;39790;53.144;6.424;2022-08-19T01:05:26;6.55;;;4.38;;
53877;SDS011;39790;53.144;6.424;2022-08-19T01:07:54;7.13;;;4.40;;
53877;SDS011;39790;53.144;6.424;2022-08-19T01:10:22;6.25;;;4.13;;
53877;SDS011;39790;53.144;6.424;2022-08-19T01:12:51;5.35;;;4.18;;
53877;SDS011;39790;53.144;6.424;2022-08-19T01:15:23;5.20;;;4.05;;
53877;SDS011;39790;53.144;6.424;2022-08-19T01:17:52;6.53;;;4.45;;
53877;SDS011;39790;53.144;6.424;2022-08-19T01:20:20;6.70;;;4.38;;
53877;SDS011;39790;53.144;6.424;2022-08-19T01:22:50;6.00;;;3.90;;
53877;SDS011;39790;53.144;6.424;2022-08-19T01:25:20;5.93;;;4.20;;
53877;SDS011;39790;53.144;6.424;2022-08-19T01:27:49;7.50;;;4.72;;
53877;SDS011;39790;53.144;6.424;2022-08-19T01:30:18;6.50;;;4.45;;
53877;SDS011;39790;53.144;6.424;2022-08-19T01:32:47;5.80;;;4.32;;
53877;SDS011;39790;53.144;6.424;2022-08-19T01:35:14;7.25;;;5.35;;
53877;SDS011;39790;53.144;6.424;2022-08-19T01:38:03;8.70;;;5.63;;
53877;SDS011;39790;53.144;6.424;2022-08-19T01:40:34;8.48;;;5.50;;
53877;SDS011;39790;53.144;6.424;2022-08-19T01:43:03;7.32;;;5.28;;
53877;SDS011;39790;53.144;6.424;2022-08-19T01:45:31;7.53;;;5.47;;
53877;SDS011;39790;53.144;6.424;2022-08-19T01:47:59;10.27;;;5.47;;
53877;SDS011;39790;53.144;6.424;2022-08-19T01:50:25;7.45;;;4.97;;
53877;SDS011;39790;53.144;6.424;2022-08-19T01:52:51;7.97;;;5.57;;
53877;SDS011;39790;53.144;6.424;2022-08-19T01:55:18;9.52;;;6.03;;
53877;SDS011;39790;53.144;6.424;2022-08-19T01:57:46;6.75;;;5.78;;
53877;SDS011;39790;53.144;6.424;2022-08-19T02:00:16;6.47;;;5.30;;
53877;SDS011;39790;53.144;6.424;2022-08-19T02:02:45;6.78;;;5.50;;
53877;SDS011;39790;53.144;6.424;2022-08-19T02:05:11;7.10;;;4.97;;
53877;SDS011;39790;53.144;6.424;2022-08-19T02:07:38;8.55;;;6.47;;
53877;SDS011;39790;53.144;6.424;2022-08-19T02:10:06;7.78;;;4.90;;
53877;SDS011;39790;53.144;6.424;2022-08-19T02:12:34;6.35;;;4.47;;
53877;SDS011;39790;53.144;6.424;2022-08-19T02:15:00;8.30;;;5.82;;
53877;SDS011;39790;53.144;6.424;2022-08-19T02:17:27;7.40;;;5.40;;
53877;SDS011;39790;53.144;6.424;2022-08-19T02:19:57;6.72;;;5.57;;
53877;SDS011;39790;53.144;6.424;2022-08-19T02:22:23;7.60;;;5.20;;
53877;SDS011;39790;53.144;6.424;2022-08-19T02:24:50;6.07;;;4.78;;
53877;SDS011;39790;53.144;6.424;2022-08-19T02:27:17;6.38;;;5.07;;
53877;SDS011;39790;53.144;6.424;2022-08-19T02:29:43;8.25;;;6.05;;
53877;SDS011;39790;53.144;6.424;2022-08-19T02:32:11;7.75;;;5.10;;
53877;SDS011;39790;53.144;6.424;2022-08-19T02:34:36;6.72;;;5.35;;
53877;SDS011;39790;53.144;6.424;2022-08-19T02:37:02;6.93;;;5.13;;
53877;SDS011;39790;53.144;6.424;2022-08-19T02:39:28;7.97;;;5.53;;
53877;SDS011;39790;53.144;6.424;2022-08-19T02:41:53;7.72;;;4.97;;
53877;SDS011;39790;53.144;6.424;2022-08-19T02:44:19;9.80;;;6.22;;
53877;SDS011;39790;53.144;6.424;2022-08-19T02:46:45;8.02;;;5.72;;
53877;SDS011;39790;53.144;6.424;2022-08-19T02:49:12;8.63;;;6.10;;
53877;SDS011;39790;53.144;6.424;2022-08-19T02:51:42;8.13;;;4.70;;
53877;SDS011;39790;53.144;6.424;2022-08-19T02:54:09;12.38;;;6.70;;
53877;SDS011;39790;53.144;6.424;2022-08-19T02:56:36;7.38;;;5.70;;
53877;SDS011;39790;53.144;6.424;2022-08-19T02:59:03;7.18;;;5.25;;
53877;SDS011;39790;53.144;6.424;2022-08-19T03:01:35;8.20;;;6.38;;
53877;SDS011;39790;53.144;6.424;2022-08-19T03:04:02;6.45;;;4.88;;
53877;SDS011;39790;53.144;6.424;2022-08-19T03:06:30;7.50;;;5.45;;
53877;SDS011;39790;53.144;6.424;2022-08-19T03:08:56;6.70;;;4.60;;
53877;SDS011;39790;53.144;6.424;2022-08-19T03:11:26;8.30;;;5.45;;
53877;SDS011;39790;53.144;6.424;2022-08-19T03:13:55;7.72;;;5.80;;
53877;SDS011;39790;53.144;6.424;2022-08-19T03:16:22;6.80;;;5.53;;
53877;SDS011;39790;53.144;6.424;2022-08-19T03:18:50;7.25;;;5.78;;
53877;SDS011;39790;53.144;6.424;2022-08-19T03:21:19;8.60;;;5.07;;
53877;SDS011;39790;53.144;6.424;2022-08-19T03:23:47;6.88;;;5.00;;
53877;SDS011;39790;53.144;6.424;2022-08-19T03:26:13;7.63;;;5.55;;
53877;SDS011;39790;53.144;6.424;2022-08-19T03:28:42;7.03;;;5.18;;
53877;SDS011;39790;53.144;6.424;2022-08-19T03:31:14;7.45;;;4.65;;
53877;SDS011;39790;53.144;6.424;2022-08-19T03:33:42;9.82;;;6.00;;
53877;SDS011;39790;53.144;6.424;2022-08-19T03:36:10;6.97;;;5.15;;
53877;SDS011;39790;53.144;6.424;2022-08-19T03:38:44;10.57;;;5.78;;
53877;SDS011;39790;53.144;6.424;2022-08-19T03:41:14;8.32;;;5.05;;
53877;SDS011;39790;53.144;6.424;2022-08-19T03:43:44;7.55;;;5.65;;
53877;SDS011;39790;53.144;6.424;2022-08-19T03:46:16;6.78;;;4.22;;
53877;SDS011;39790;53.144;6.424;2022-08-19T03:48:47;8.65;;;5.03;;
53877;SDS011;39790;53.144;6.424;2022-08-19T03:51:21;6.72;;;4.85;;
53877;SDS011;39790;53.144;6.424;2022-08-19T03:53:56;7.28;;;5.65;;
53877;SDS011;39790;53.144;6.424;2022-08-19T03:56:23;5.30;;;4.28;;
53877;SDS011;39790;53.144;6.424;2022-08-19T03:58:53;7.22;;;4.80;;
53877;SDS011;39790;53.144;6.424;2022-08-19T04:01:20;8.15;;;5.22;;
53877;SDS011;39790;53.144;6.424;2022-08-19T04:03:48;8.77;;;5.80;;
53877;SDS011;39790;53.144;6.424;2022-08-19T04:08:46;9.45;;;5.03;;
53877;SDS011;39790;53.144;6.424;2022-08-19T04:11:14;7.15;;;5.80;;
53877;SDS011;39790;53.144;6.424;2022-08-19T04:13:42;8.10;;;5.60;;
53877;SDS011;39790;53.144;6.424;2022-08-19T04:16:09;9.00;;;5.95;;
53877;SDS011;39790;53.144;6.424;2022-08-19T04:18:36;8.27;;;5.20;;
53877;SDS011;39790;53.144;6.424;2022-08-19T04:21:03;9.80;;;5.78;;
53877;SDS011;39790;53.144;6.424;2022-08-19T04:23:29;8.50;;;5.95;;
53877;SDS011;39790;53.144;6.424;2022-08-19T04:25:56;8.43;;;5.90;;
53877;SDS011;39790;53.144;6.424;2022-08-19T04:28:23;7.72;;;6.15;;
53877;SDS011;39790;53.144;6.424;2022-08-19T04:30:50;9.80;;;5.25;;
53877;SDS011;39790;53.144;6.424;2022-08-19T04:33:18;8.68;;;5.47;;
53877;SDS011;39790;53.144;6.424;2022-08-19T04:35:47;7.70;;;4.95;;
53877;SDS011;39790;53.144;6.424;2022-08-19T04:38:15;7.40;;;5.22;;
53877;SDS011;39790;53.144;6.424;2022-08-19T04:40:45;8.65;;;6.63;;
53877;SDS011;39790;53.144;6.424;2022-08-19T04:43:31;10.25;;;6.32;;
53877;SDS011;39790;53.144;6.424;2022-08-19T04:45:58;9.10;;;7.18;;
53877;SDS011;39790;53.144;6.424;2022-08-19T04:48:33;8.43;;;5.75;;
53877;SDS011;39790;53.144;6.424;2022-08-19T04:51:00;8.45;;;6.40;;
53877;SDS011;39790;53.144;6.424;2022-08-19T04:53:29;8.00;;;5.60;;
53877;SDS011;39790;53.144;6.424;2022-08-19T04:55:57;9.05;;;7.15;;
53877;SDS011;39790;53.144;6.424;2022-08-19T04:58:25;10.20;;;6.50;;
53877;SDS011;39790;53.144;6.424;2022-08-19T05:00:51;8.45;;;6.15;;
53877;SDS011;39790;53.144;6.424;2022-08-19T05:03:17;8.85;;;5.45;;
53877;SDS011;39790;53.144;6.424;2022-08-19T05:05:44;7.75;;;5.07;;
53877;SDS011;39790;53.144;6.424;2022-08-19T05:08:13;10.45;;;5.30;;
53877;SDS011;39790;53.144;6.424;2022-08-19T05:10:45;7.75;;;5.80;;
53877;SDS011;39790;53.144;6.424;2022-08-19T05:13:12;8.65;;;6.07;;
53877;SDS011;39790;53.144;6.424;2022-08-19T05:15:39;11.40;;;5.65;;
53877;SDS011;39790;53.144;6.424;2022-08-19T05:18:05;6.00;;;4.68;;
53877;SDS011;39790;53.144;6.424;2022-08-19T05:20:49;8.05;;;5.47;;
53877;SDS011;39790;53.144;6.424;2022-08-19T05:23:34;9.73;;;5.57;;
53877;SDS011;39790;53.144;6.424;2022-08-19T05:25:59;7.47;;;5.10;;
53877;SDS011;39790;53.144;6.424;2022-08-19T05:28:25;7.00;;;5.60;;
53877;SDS011;39790;53.144;6.424;2022-08-19T05:30:52;6.95;;;5.40;;
53877;SDS011;39790;53.144;6.424;2022-08-19T05:33:20;9.02;;;5.97;;
53877;SDS011;39790;53.144;6.424;2022-08-19T05:35:46;6.78;;;5.03;;
53877;SDS011;39790;53.144;6.424;2022-08-19T05:38:14;9.05;;;6.25;;
53877;SDS011;39790;53.144;6.424;2022-08-19T05:40:41;9.48;;;6.38;;
53877;SDS011;39790;53.144;6.424;2022-08-19T05:43:11;8.52;;;5.95;;
53877;SDS011;39790;53.144;6.424;2022-08-19T05:45:40;9.65;;;6.85;;
53877;SDS011;39790;53.144;6.424;2022-08-19T05:48:07;11.65;;;6.22;;
53877;SDS011;39790;53.144;6.424;2022-08-19T05:50:36;7.20;;;5.38;;
53877;SDS011;39790;53.144;6.424;2022-08-19T05:53:02;10.35;;;7.13;;
53877;SDS011;39790;53.144;6.424;2022-08-19T05:55:28;7.50;;;5.65;;
53877;SDS011;39790;53.144;6.424;2022-08-19T05:57:54;6.90;;;4.75;;
53877;SDS011;39790;53.144;6.424;2022-08-19T06:00:19;9.52;;;5.70;;
53877;SDS011;39790;53.144;6.424;2022-08-19T06:02:45;11.32;;;7.18;;
53877;SDS011;39790;53.144;6.424;2022-08-19T06:05:11;9.45;;;5.85;;
53877;SDS011;39790;53.144;6.424;2022-08-19T06:07:37;11.00;;;7.72;;
53877;SDS011;39790;53.144;6.424;2022-08-19T06:10:04;11.23;;;7.13;;
53877;SDS011;39790;53.144;6.424;2022-08-19T06:12:33;9.40;;;5.90;;
53877;SDS011;39790;53.144;6.424;2022-08-19T06:15:00;8.13;;;5.05;;
53877;SDS011;39790;53.144;6.424;2022-08-19T06:17:29;12.70;;;7.65;;
53877;SDS011;39790;53.144;6.424;2022-08-19T06:19:55;10.88;;;6.72;;
53877;SDS011;39790;53.144;6.424;2022-08-19T06:22:21;8.23;;;5.53;;
53877;SDS011;39790;53.144;6.424;2022-08-19T06:24:47;9.05;;;5.53;;
53877;SDS011;39790;53.144;6.424;2022-08-19T06:27:13;6.28;;;4.05;;
53877;SDS011;39790;53.144;6.424;2022-08-19T06:29:38;8.43;;;4.35;;
53877;SDS011;39790;53.144;6.424;2022-08-19T06:32:04;8.57;;;4.80;;
53877;SDS011;39790;53.144;6.424;2022-08-19T06:34:31;5.95;;;3.92;;
53877;SDS011;39790;53.144;6.424;2022-08-19T06:36:59;6.05;;;3.75;;
53877;SDS011;39790;53.144;6.424;2022-08-19T06:39:37;6.22;;;3.95;;
53877;SDS011;39790;53.144;6.424;2022-08-19T06:42:10;7.25;;;4.93;;
53877;SDS011;39790;53.144;6.424;2022-08-19T06:44:42;5.95;;;4.13;;
53877;SDS011;39790;53.144;6.424;2022-08-19T06:47:09;4.88;;;3.60;;
53877;SDS011;39790;53.144;6.424;2022-08-19T06:49:37;4.05;;;3.17;;
53877;SDS011;39790;53.144;6.424;2022-08-19T06:52:04;5.68;;;3.53;;
53877;SDS011;39790;53.144;6.424;2022-08-19T06:54:30;5.72;;;3.78;;
53877;SDS011;39790;53.144;6.424;2022-08-19T06:57:00;5.72;;;3.95;;
53877;SDS011;39790;53.144;6.424;2022-08-19T06:59:29;5.68;;;4.07;;
53877;SDS011;39790;53.144;6.424;2022-08-19T07:01:56;4.57;;;3.38;;
53877;SDS011;39790;53.144;6.424;2022-08-19T07:04:24;5.13;;;3.58;;
53877;SDS011;39790;53.144;6.424;2022-08-19T07:06:56;5.57;;;3.60;;
53877;SDS011;39790;53.144;6.424;2022-08-19T07:09:38;5.80;;;4.32;;
53877;SDS011;39790;53.144;6.424;2022-08-19T07:12:07;6.38;;;3.75;;
53877;SDS011;39790;53.144;6.424;2022-08-19T07:14:34;4.85;;;3.35;;
53877;SDS011;39790;53.144;6.424;2022-08-19T07:17:02;6.38;;;5.13;;
53877;SDS011;39790;53.144;6.424;2022-08-19T07:19:29;6.57;;;3.70;;
53877;SDS011;39790;53.144;6.424;2022-08-19T07:21:56;6.68;;;5.20;;
53877;SDS011;39790;53.144;6.424;2022-08-19T07:24:24;11.15;;;5.15;;
53877;SDS011;39790;53.144;6.424;2022-08-19T07:26:51;6.82;;;4.72;;
53877;SDS011;39790;53.144;6.424;2022-08-19T07:29:19;5.78;;;4.45;;
53877;SDS011;39790;53.144;6.424;2022-08-19T07:31:48;6.68;;;4.47;;
53877;SDS011;39790;53.144;6.424;2022-08-19T07:34:15;6.78;;;4.53;;
53877;SDS011;39790;53.144;6.424;2022-08-19T07:36:41;6.68;;;4.88;;
53877;SDS011;39790;53.144;6.424;2022-08-19T07:39:09;6.90;;;4.13;;
53877;SDS011;39790;53.144;6.424;2022-08-19T07:41:37;7.22;;;5.28;;
53877;SDS011;39790;53.144;6.424;2022-08-19T07:44:04;8.18;;;5.32;;
53877;SDS011;39790;53.144;6.424;2022-08-19T07:46:32;9.07;;;6.53;;
53877;SDS011;39790;53.144;6.424;2022-08-19T07:48:59;8.60;;;5.32;;
53877;SDS011;39790;53.144;6.424;2022-08-19T07:51:25;10.25;;;5.75;;
53877;SDS011;39790;53.144;6.424;2022-08-19T07:53:52;8.52;;;4.50;;
53877;SDS011;39790;53.144;6.424;2022-08-19T07:56:20;5.47;;;4.03;;
53877;SDS011;39790;53.144;6.424;2022-08-19T07:58:47;7.53;;;4.53;;
53877;SDS011;39790;53.144;6.424;2022-08-19T08:01:17;5.72;;;4.05;;
53877;SDS011;39790;53.144;6.424;2022-08-19T08:03:45;4.60;;;3.63;;
53877;SDS011;39790;53.144;6.424;2022-08-19T08:06:30;7.03;;;5.88;;
53877;SDS011;39790;53.144;6.424;2022-08-19T08:09:15;5.93;;;5.13;;
53877;SDS011;39790;53.144;6.424;2022-08-19T08:11:54;6.88;;;5.70;;
53877;SDS011;39790;53.144;6.424;2022-08-19T08:14:24;15.88;;;5.50;;
53877;SDS011;39790;53.144;6.424;2022-08-19T08:16:52;13.85;;;5.18;;
53877;SDS011;39790;53.144;6.424;2022-08-19T08:19:19;9.88;;;6.32;;
53877;SDS011;39790;53.144;6.424;2022-08-19T08:21:46;9.80;;;5.80;;
53877;SDS011;39790;53.144;6.424;2022-08-19T08:24:13;10.35;;;6.03;;
53877;SDS011;39790;53.144;6.424;2022-08-19T08:26:39;7.97;;;5.30;;
53877;SDS011;39790;53.144;6.424;2022-08-19T08:29:05;9.15;;;6.00;;
53877;SDS011;39790;53.144;6.424;2022-08-19T08:31:35;8.07;;;5.03;;
53877;SDS011;39790;53.144;6.424;2022-08-19T08:34:02;10.38;;;5.32;;
53877;SDS011;39790;53.144;6.424;2022-08-19T08:36:28;8.27;;;6.22;;
53877;SDS011;39790;53.144;6.424;2022-08-19T08:38:54;9.77;;;5.78;;
53877;SDS011;39790;53.144;6.424;2022-08-19T08:41:22;7.85;;;5.50;;
53877;SDS011;39790;53.144;6.424;2022-08-19T08:43:51;9.00;;;5.90;;
53877;SDS011;39790;53.144;6.424;2022-08-19T08:46:22;7.38;;;5.32;;
53877;SDS011;39790;53.144;6.424;2022-08-19T08:51:39;9.80;;;5.65;;
53877;SDS011;39790;53.144;6.424;2022-08-19T08:54:08;7.40;;;5.95;;
53877;SDS011;39790;53.144;6.424;2022-08-19T08:56:43;8.23;;;6.30;;
53877;SDS011;39790;53.144;6.424;2022-08-19T08:59:12;10.32;;;6.65;;
53877;SDS011;39790;53.144;6.424;2022-08-19T09:01:43;7.35;;;5.93;;
53877;SDS011;39790;53.144;6.424;2022-08-19T09:04:09;7.72;;;6.32;;
53877;SDS011;39790;53.144;6.424;2022-08-19T09:06:39;12.35;;;6.68;;
53877;SDS011;39790;53.144;6.424;2022-08-19T09:09:32;10.68;;;7.72;;
53877;SDS011;39790;53.144;6.424;2022-08-19T09:14:46;8.73;;;6.72;;
53877;SDS011;39790;53.144;6.424;2022-08-19T09:17:23;7.45;;;6.47;;
53877;SDS011;39790;53.144;6.424;2022-08-19T09:20:37;7.35;;;6.53;;
53877;SDS011;39790;53.144;6.424;2022-08-19T09:22:46;8.70;;;6.75;;
53877;SDS011;39790;53.144;6.424;2022-08-19T09:25:15;7.50;;;6.20;;
53877;SDS011;39790;53.144;6.424;2022-08-19T09:27:42;8.27;;;6.15;;
53877;SDS011;39790;53.144;6.424;2022-08-19T09:30:16;6.10;;;5.38;;
53877;SDS011;39790;53.144;6.424;2022-08-19T09:32:44;7.22;;;5.65;;
53877;SDS011;39790;53.144;6.424;2022-08-19T09:35:10;8.75;;;5.80;;
53877;SDS011;39790;53.144;6.424;2022-08-19T09:37:37;6.78;;;5.35;;
53877;SDS011;39790;53.144;6.424;2022-08-19T09:40:03;7.45;;;6.07;;
53877;SDS011;39790;53.144;6.424;2022-08-19T09:42:29;11.35;;;7.45;;
53877;SDS011;39790;53.144;6.424;2022-08-19T09:44:55;11.25;;;6.78;;
53877;SDS011;39790;53.144;6.424;2022-08-19T09:47:20;8.32;;;6.82;;
53877;SDS011;39790;53.144;6.424;2022-08-19T09:49:46;7.75;;;6.75;;
53877;SDS011;39790;53.144;6.424;2022-08-19T09:52:13;8.55;;;6.80;;
53877;SDS011;39790;53.144;6.424;2022-08-19T09:54:40;6.85;;;5.97;;
53877;SDS011;39790;53.144;6.424;2022-08-19T09:57:06;7.20;;;5.50;;
53877;SDS011;39790;53.144;6.424;2022-08-19T09:59:32;6.47;;;5.40;;
53877;SDS011;39790;53.144;6.424;2022-08-19T10:01:58;8.40;;;6.50;;
53877;SDS011;39790;53.144;6.424;2022-08-19T10:04:23;7.53;;;6.68;;
53877;SDS011;39790;53.144;6.424;2022-08-19T10:07:10;7.35;;;6.57;;
53877;SDS011;39790;53.144;6.424;2022-08-19T10:09:36;9.73;;;7.25;;
53877;SDS011;39790;53.144;6.424;2022-08-19T10:12:02;10.40;;;6.25;;
53877;SDS011;39790;53.144;6.424;2022-08-19T10:14:29;9.73;;;7.00;;
53877;SDS011;39790;53.144;6.424;2022-08-19T10:16:55;9.48;;;7.25;;
53877;SDS011;39790;53.144;6.424;2022-08-19T10:19:21;10.48;;;7.20;;
53877;SDS011;39790;53.144;6.424;2022-08-19T10:21:47;8.68;;;6.95;;
53877;SDS011;39790;53.144;6.424;2022-08-19T10:24:12;10.15;;;7.60;;
53877;SDS011;39790;53.144;6.424;2022-08-19T10:26:39;10.40;;;7.45;;
53877;SDS011;39790;53.144;6.424;2022-08-19T10:29:09;8.95;;;7.00;;
53877;SDS011;39790;53.144;6.424;2022-08-19T10:31:36;9.55;;;7.88;;
53877;SDS011;39790;53.144;6.424;2022-08-19T10:34:02;10.48;;;7.10;;
53877;SDS011;39790;53.144;6.424;2022-08-19T10:36:30;9.15;;;7.57;;
53877;SDS011;39790;53.144;6.424;2022-08-19T10:38:58;8.68;;;6.80;;
53877;SDS011;39790;53.144;6.424;2022-08-19T10:41:28;9.75;;;6.68;;
53877;SDS011;39790;53.144;6.424;2022-08-19T10:43:58;8.27;;;6.75;;
53877;SDS011;39790;53.144;6.424;2022-08-19T10:46:27;8.43;;;7.18;;
53877;SDS011;39790;53.144;6.424;2022-08-19T10:48:57;9.48;;;8.13;;
53877;SDS011;39790;53.144;6.424;2022-08-19T10:51:23;11.30;;;7.97;;
53877;SDS011;39790;53.144;6.424;2022-08-19T10:54:07;8.95;;;7.28;;
53877;SDS011;39790;53.144;6.424;2022-08-19T10:56:33;10.32;;;8.15;;
53877;SDS011;39790;53.144;6.424;2022-08-19T10:59:18;8.43;;;7.18;;
53877;SDS011;39790;53.144;6.424;2022-08-19T11:01:47;9.00;;;7.03;;
53877;SDS011;39790;53.144;6.424;2022-08-19T11:04:14;13.40;;;9.07;;
53877;SDS011;39790;53.144;6.424;2022-08-19T11:06:44;10.27;;;8.35;;
53877;SDS011;39790;53.144;6.424;2022-08-19T11:09:12;12.60;;;8.82;;
53877;SDS011;39790;53.144;6.424;2022-08-19T11:11:39;11.48;;;8.02;;
53877;SDS011;39790;53.144;6.424;2022-08-19T11:14:09;9.63;;;8.38;;
53877;SDS011;39790;53.144;6.424;2022-08-19T11:16:37;11.23;;;7.75;;
53877;SDS011;39790;53.144;6.424;2022-08-19T11:19:04;10.75;;;7.50;;
53877;SDS011;39790;53.144;6.424;2022-08-19T11:21:32;9.88;;;6.90;;
53877;SDS011;39790;53.144;6.424;2022-08-19T11:24:01;10.80;;;7.45;;
53877;SDS011;39790;53.144;6.424;2022-08-19T11:26:32;10.80;;;7.53;;
53877;SDS011;39790;53.144;6.424;2022-08-19T11:28:58;10.50;;;7.30;;
53877;SDS011;39790;53.144;6.424;2022-08-19T11:31:27;11.30;;;7.38;;
53877;SDS011;39790;53.144;6.424;2022-08-19T11:33:57;8.32;;;7.25;;
53877;SDS011;39790;53.144;6.424;2022-08-19T11:36:25;23.00;;;6.53;;
53877;SDS011;39790;53.144;6.424;2022-08-19T11:38:51;17.00;;;7.93;;
53877;SDS011;39790;53.144;6.424;2022-08-19T11:41:18;27.85;;;7.88;;
53877;SDS011;39790;53.144;6.424;2022-08-19T11:43:45;12.27;;;7.82;;
53877;SDS011;39790;53.144;6.424;2022-08-19T11:46:11;9.32;;;6.47;;
53877;SDS011;39790;53.144;6.424;2022-08-19T11:48:39;13.25;;;7.80;;
53877;SDS011;39790;53.144;6.424;2022-08-19T11:51:07;10.30;;;7.28;;
53877;SDS011;39790;53.144;6.424;2022-08-19T11:53:34;20.58;;;8.48;;
53877;SDS011;39790;53.144;6.424;2022-08-19T11:56:01;18.85;;;8.18;;
53877;SDS011;39790;53.144;6.424;2022-08-19T11:58:28;12.25;;;6.97;;
53877;SDS011;39790;53.144;6.424;2022-08-19T12:00:54;17.58;;;8.27;;
53877;SDS011;39790;53.144;6.424;2022-08-19T12:03:20;21.67;;;8.68;;
53877;SDS011;39790;53.144;6.424;2022-08-19T12:05:46;9.93;;;6.40;;
53877;SDS011;39790;53.144;6.424;2022-08-19T12:08:11;10.80;;;7.28;;
53877;SDS011;39790;53.144;6.424;2022-08-19T12:10:38;10.90;;;6.45;;
53877;SDS011;39790;53.144;6.424;2022-08-19T12:13:05;10.20;;;6.07;;
53877;SDS011;39790;53.144;6.424;2022-08-19T12:15:35;7.63;;;6.13;;
53877;SDS011;39790;53.144;6.424;2022-08-19T12:18:05;11.05;;;6.60;;
53877;SDS011;39790;53.144;6.424;2022-08-19T12:20:34;13.23;;;7.03;;
53877;SDS011;39790;53.144;6.424;2022-08-19T12:23:01;12.25;;;6.82;;
53877;SDS011;39790;53.144;6.424;2022-08-19T12:25:27;12.82;;;6.47;;
53877;SDS011;39790;53.144;6.424;2022-08-19T12:27:52;6.78;;;5.65;;
53877;SDS011;39790;53.144;6.424;2022-08-19T12:30:18;7.65;;;6.00;;
53877;SDS011;39790;53.144;6.424;2022-08-19T12:32:43;8.73;;;6.35;;
53877;SDS011;39790;53.144;6.424;2022-08-19T12:35:09;7.22;;;6.25;;
53877;SDS011;39790;53.144;6.424;2022-08-19T12:37:35;10.32;;;7.45;;
53877;SDS011;39790;53.144;6.424;2022-08-19T12:40:01;8.18;;;7.00;;
53877;SDS011;39790;53.144;6.424;2022-08-19T12:42:28;8.65;;;6.63;;
53877;SDS011;39790;53.144;6.424;2022-08-19T12:44:54;8.43;;;5.82;;
53877;SDS011;39790;53.144;6.424;2022-08-19T12:47:20;10.98;;;6.78;;
53877;SDS011;39790;53.144;6.424;2022-08-19T12:49:46;9.25;;;6.60;;
53877;SDS011;39790;53.144;6.424;2022-08-19T12:52:12;8.48;;;6.80;;
53877;SDS011;39790;53.144;6.424;2022-08-19T12:54:41;9.07;;;6.55;;
53877;SDS011;39790;53.144;6.424;2022-08-19T12:57:08;10.82;;;6.43;;
53877;SDS011;39790;53.144;6.424;2022-08-19T12:59:35;11.10;;;7.70;;
53877;SDS011;39790;53.144;6.424;2022-08-19T13:02:02;13.80;;;8.48;;
53877;SDS011;39790;53.144;6.424;2022-08-19T13:04:32;12.35;;;8.48;;
53877;SDS011;39790;53.144;6.424;2022-08-19T13:07:05;13.02;;;10.02;;
53877;SDS011;39790;53.144;6.424;2022-08-19T13:09:32;14.48;;;11.23;;
53877;SDS011;39790;53.144;6.424;2022-08-19T13:11:57;15.18;;;11.25;;
53877;SDS011;39790;53.144;6.424;2022-08-19T13:14:27;16.90;;;10.52;;
53877;SDS011;39790;53.144;6.424;2022-08-19T13:16:55;11.88;;;9.20;;
53877;SDS011;39790;53.144;6.424;2022-08-19T13:19:22;13.10;;;9.35;;
53877;SDS011;39790;53.144;6.424;2022-08-19T13:21:49;15.48;;;9.63;;
53877;SDS011;39790;53.144;6.424;2022-08-19T13:24:15;12.25;;;8.30;;
53877;SDS011;39790;53.144;6.424;2022-08-19T13:26:41;9.27;;;7.30;;
53877;SDS011;39790;53.144;6.424;2022-08-19T13:29:07;11.57;;;7.68;;
53877;SDS011;39790;53.144;6.424;2022-08-19T13:31:56;9.13;;;7.45;;
53877;SDS011;39790;53.144;6.424;2022-08-19T13:37:05;10.05;;;5.78;;
53877;SDS011;39790;53.144;6.424;2022-08-19T13:39:31;9.82;;;6.43;;
53877;SDS011;39790;53.144;6.424;2022-08-19T13:41:58;7.82;;;6.10;;
53877;SDS011;39790;53.144;6.424;2022-08-19T13:44:25;12.25;;;6.20;;
53877;SDS011;39790;53.144;6.424;2022-08-19T13:46:54;12.35;;;6.80;;
53877;SDS011;39790;53.144;6.424;2022-08-19T13:49:25;11.05;;;7.63;;
53877;SDS011;39790;53.144;6.424;2022-08-19T13:51:52;12.07;;;7.93;;
53877;SDS011;39790;53.144;6.424;2022-08-19T13:54:18;11.70;;;7.70;;
53877;SDS011;39790;53.144;6.424;2022-08-19T13:56:44;11.57;;;8.15;;
53877;SDS011;39790;53.144;6.424;2022-08-19T13:59:10;13.80;;;8.90;;
53877;SDS011;39790;53.144;6.424;2022-08-19T14:01:36;15.05;;;9.25;;
53877;SDS011;39790;53.144;6.424;2022-08-19T14:04:02;17.02;;;9.77;;
53877;SDS011;39790;53.144;6.424;2022-08-19T14:06:28;13.85;;;8.88;;
53877;SDS011;39790;53.144;6.424;2022-08-19T14:08:54;17.15;;;8.90;;
53877;SDS011;39790;53.144;6.424;2022-08-19T14:11:20;12.25;;;9.25;;
53877;SDS011;39790;53.144;6.424;2022-08-19T14:13:47;11.85;;;8.18;;
53877;SDS011;39790;53.144;6.424;2022-08-19T14:16:13;15.90;;;9.63;;
53877;SDS011;39790;53.144;6.424;2022-08-19T14:18:39;13.05;;;8.15;;
53877;SDS011;39790;53.144;6.424;2022-08-19T14:21:06;19.73;;;9.48;;
53877;SDS011;39790;53.144;6.424;2022-08-19T14:23:33;12.77;;;9.48;;
53877;SDS011;39790;53.144;6.424;2022-08-19T14:26:08;14.38;;;9.15;;
53877;SDS011;39790;53.144;6.424;2022-08-19T14:28:37;9.30;;;7.32;;
53877;SDS011;39790;53.144;6.424;2022-08-19T14:31:04;10.63;;;7.63;;
53877;SDS011;39790;53.144;6.424;2022-08-19T14:33:29;11.75;;;8.32;;
53877;SDS011;39790;53.144;6.424;2022-08-19T14:35:55;11.82;;;7.70;;
53877;SDS011;39790;53.144;6.424;2022-08-19T14:38:21;12.13;;;7.72;;
53877;SDS011;39790;53.144;6.424;2022-08-19T14:40:46;16.35;;;9.10;;
53877;SDS011;39790;53.144;6.424;2022-08-19T14:43:13;15.43;;;8.88;;
53877;SDS011;39790;53.144;6.424;2022-08-19T14:45:39;17.58;;;10.18;;
53877;SDS011;39790;53.144;6.424;2022-08-19T14:48:06;17.73;;;10.80;;
53877;SDS011;39790;53.144;6.424;2022-08-19T14:50:32;14.95;;;10.90;;
53877;SDS011;39790;53.144;6.424;2022-08-19T14:53:02;14.40;;;8.50;;
53877;SDS011;39790;53.144;6.424;2022-08-19T14:55:30;7.88;;;5.00;;
53877;SDS011;39790;53.144;6.424;2022-08-19T14:57:57;5.82;;;4.32;;
53877;SDS011;39790;53.144;6.424;2022-08-19T15:00:23;7.65;;;5.47;;